sensor_id;sensor_type;location;lat;lon;timestamp;temperature;humidity
65036;DHT22;51603;49.300;8.880;2022-10-17T00:00:36;13.30;99.90
65036;DHT22;51603;49.300;8.880;2022-10-17T00:03:01;13.30;99.90
65036;DHT22;51603;49.300;8.880;2022-10-17T00:05:27;13.30;99.90
65036;DHT22;51603;49.300;8.880;2022-10-17T00:07:53;13.30;99.90
65036;DHT22;51603;49.300;8.880;2022-10-17T00:10:19;13.30;99.90
65036;DHT22;51603;49.300;8.880;2022-10-17T00:12:46;13.30;99.90
65036;DHT22;51603;49.300;8.880;2022-10-17T00:15:15;13.30;99.90
65036;DHT22;51603;49.300;8.880;2022-10-17T00:17:41;13.20;99.90
65036;DHT22;51603;49.300;8.880;2022-10-17T00:20:07;13.20;99.90
65036;DHT22;51603;49.300;8.880;2022-10-17T00:22:32;13.20;99.90
65036;DHT22;51603;49.300;8.880;2022-10-17T00:24:58;13.10;99.90
65036;DHT22;51603;49.300;8.880;2022-10-17T00:27:24;13.10;99.90
65036;DHT22;51603;49.300;8.880;2022-10-17T00:29:50;13.10;99.90
65036;DHT22;51603;49.300;8.880;2022-10-17T00:32:16;13.10;99.90
65036;DHT22;51603;49.300;8.880;2022-10-17T00:34:42;13.10;99.90
65036;DHT22;51603;49.300;8.880;2022-10-17T00:37:08;13.10;99.90
65036;DHT22;51603;49.300;8.880;2022-10-17T00:39:33;13.10;99.90
65036;DHT22;51603;49.300;8.880;2022-10-17T00:41:59;13.00;99.90
65036;DHT22;51603;49.300;8.880;2022-10-17T00:47:03;13.10;99.90
65036;DHT22;51603;49.300;8.880;2022-10-17T00:49:31;13.00;99.90
65036;DHT22;51603;49.300;8.880;2022-10-17T00:52:02;13.00;99.90
65036;DHT22;51603;49.300;8.880;2022-10-17T00:54:40;13.00;99.90
65036;DHT22;51603;49.300;8.880;2022-10-17T00:57:07;13.00;99.90
65036;DHT22;51603;49.300;8.880;2022-10-17T00:59:33;13.00;99.90
65036;DHT22;51603;49.300;8.880;2022-10-17T01:02:04;12.90;99.90
65036;DHT22;51603;49.300;8.880;2022-10-17T01:04:30;12.90;99.90
65036;DHT22;51603;49.300;8.880;2022-10-17T01:06:55;12.90;99.90
65036;DHT22;51603;49.300;8.880;2022-10-17T01:09:21;12.90;99.90
65036;DHT22;51603;49.300;8.880;2022-10-17T01:12:03;12.90;99.90
65036;DHT22;51603;49.300;8.880;2022-10-17T01:14:45;12.90;99.90
65036;DHT22;51603;49.300;8.880;2022-10-17T01:31:15;12.80;99.90
65036;DHT22;51603;49.300;8.880;2022-10-17T01:33:58;12.70;99.90
65036;DHT22;51603;49.300;8.880;2022-10-17T01:39:20;12.70;99.90
65036;DHT22;51603;49.300;8.880;2022-10-17T01:42:02;12.70;99.90
65036;DHT22;51603;49.300;8.880;2022-10-17T01:44:45;12.70;99.90
65036;DHT22;51603;49.300;8.880;2022-10-17T01:47:18;12.60;99.90
65036;DHT22;51603;49.300;8.880;2022-10-17T01:49:45;12.60;99.90
65036;DHT22;51603;49.300;8.880;2022-10-17T01:52:24;12.60;99.90
65036;DHT22;51603;49.300;8.880;2022-10-17T01:55:07;12.60;99.90
65036;DHT22;51603;49.300;8.880;2022-10-17T01:57:45;12.50;99.90
65036;DHT22;51603;49.300;8.880;2022-10-17T02:00:16;12.60;99.90
65036;DHT22;51603;49.300;8.880;2022-10-17T02:02:44;12.60;99.90
65036;DHT22;51603;49.300;8.880;2022-10-17T02:05:11;12.50;99.90
65036;DHT22;51603;49.300;8.880;2022-10-17T02:07:37;12.50;99.90
65036;DHT22;51603;49.300;8.880;2022-10-17T02:10:11;12.40;99.90
65036;DHT22;51603;49.300;8.880;2022-10-17T02:12:51;12.40;99.90
65036;DHT22;51603;49.300;8.880;2022-10-17T02:15:39;12.40;99.90
65036;DHT22;51603;49.300;8.880;2022-10-17T02:20:58;12.40;99.90
65036;DHT22;51603;49.300;8.880;2022-10-17T02:26:13;12.40;99.90
65036;DHT22;51603;49.300;8.880;2022-10-17T02:31:37;12.30;99.90
65036;DHT22;51603;49.300;8.880;2022-10-17T02:34:13;12.30;99.90
65036;DHT22;51603;49.300;8.880;2022-10-17T02:36:44;12.30;99.90
65036;DHT22;51603;49.300;8.880;2022-10-17T02:39:11;12.30;99.90
65036;DHT22;51603;49.300;8.880;2022-10-17T02:41:39;12.30;99.90
65036;DHT22;51603;49.300;8.880;2022-10-17T02:44:06;12.30;99.90
65036;DHT22;51603;49.300;8.880;2022-10-17T02:46:33;12.20;99.90
65036;DHT22;51603;49.300;8.880;2022-10-17T02:49:11;12.20;99.90
65036;DHT22;51603;49.300;8.880;2022-10-17T02:51:50;12.20;99.90
65036;DHT22;51603;49.300;8.880;2022-10-17T02:54:32;12.20;99.90
65036;DHT22;51603;49.300;8.880;2022-10-17T02:57:13;12.20;99.90
65036;DHT22;51603;49.300;8.880;2022-10-17T02:59:42;12.20;99.90
65036;DHT22;51603;49.300;8.880;2022-10-17T03:02:09;12.20;99.90
65036;DHT22;51603;49.300;8.880;2022-10-17T03:04:35;12.20;99.90
65036;DHT22;51603;49.300;8.880;2022-10-17T03:07:01;12.20;99.90
65036;DHT22;51603;49.300;8.880;2022-10-17T03:09:26;12.20;99.90
65036;DHT22;51603;49.300;8.880;2022-10-17T03:11:52;12.20;99.90
65036;DHT22;51603;49.300;8.880;2022-10-17T03:14:17;12.20;99.90
65036;DHT22;51603;49.300;8.880;2022-10-17T03:16:43;12.20;99.90
65036;DHT22;51603;49.300;8.880;2022-10-17T03:19:08;12.10;99.90
65036;DHT22;51603;49.300;8.880;2022-10-17T03:21:34;12.10;99.90
65036;DHT22;51603;49.300;8.880;2022-10-17T03:24:02;12.10;99.90
65036;DHT22;51603;49.300;8.880;2022-10-17T03:26:28;12.10;99.90
65036;DHT22;51603;49.300;8.880;2022-10-17T03:28:54;12.10;99.90
65036;DHT22;51603;49.300;8.880;2022-10-17T03:31:20;12.10;99.90
65036;DHT22;51603;49.300;8.880;2022-10-17T03:33:46;12.10;99.90
65036;DHT22;51603;49.300;8.880;2022-10-17T03:36:15;12.10;99.90
65036;DHT22;51603;49.300;8.880;2022-10-17T03:38:41;12.10;99.90
65036;DHT22;51603;49.300;8.880;2022-10-17T03:41:07;12.00;99.90
65036;DHT22;51603;49.300;8.880;2022-10-17T03:43:33;12.00;99.90
65036;DHT22;51603;49.300;8.880;2022-10-17T03:46:00;12.00;99.90
65036;DHT22;51603;49.300;8.880;2022-10-17T03:48:27;12.00;99.90
65036;DHT22;51603;49.300;8.880;2022-10-17T03:51:05;12.00;99.90
65036;DHT22;51603;49.300;8.880;2022-10-17T03:53:30;12.00;99.90
65036;DHT22;51603;49.300;8.880;2022-10-17T03:55:56;12.00;99.90
65036;DHT22;51603;49.300;8.880;2022-10-17T03:58:32;12.00;99.90
65036;DHT22;51603;49.300;8.880;2022-10-17T04:01:03;12.00;99.90
65036;DHT22;51603;49.300;8.880;2022-10-17T04:03:28;11.90;99.90
65036;DHT22;51603;49.300;8.880;2022-10-17T04:05:57;12.00;99.90
65036;DHT22;51603;49.300;8.880;2022-10-17T04:08:23;11.90;99.90
65036;DHT22;51603;49.300;8.880;2022-10-17T04:10:49;11.90;99.90
65036;DHT22;51603;49.300;8.880;2022-10-17T04:13:14;11.90;99.90
65036;DHT22;51603;49.300;8.880;2022-10-17T04:15:40;11.90;99.90
65036;DHT22;51603;49.300;8.880;2022-10-17T04:18:05;11.90;99.90
65036;DHT22;51603;49.300;8.880;2022-10-17T04:20:31;11.90;99.90
65036;DHT22;51603;49.300;8.880;2022-10-17T04:22:58;11.90;99.90
65036;DHT22;51603;49.300;8.880;2022-10-17T04:25:24;11.90;99.90
65036;DHT22;51603;49.300;8.880;2022-10-17T04:27:49;11.80;99.90
65036;DHT22;51603;49.300;8.880;2022-10-17T04:30:15;11.80;99.90
65036;DHT22;51603;49.300;8.880;2022-10-17T04:32:41;11.80;99.90
65036;DHT22;51603;49.300;8.880;2022-10-17T04:35:07;11.80;99.90
65036;DHT22;51603;49.300;8.880;2022-10-17T04:37:33;11.80;99.90
65036;DHT22;51603;49.300;8.880;2022-10-17T04:39:58;11.80;99.90
65036;DHT22;51603;49.300;8.880;2022-10-17T04:42:24;11.80;99.90
65036;DHT22;51603;49.300;8.880;2022-10-17T04:44:49;11.80;99.90
65036;DHT22;51603;49.300;8.880;2022-10-17T04:47:15;11.80;99.90
65036;DHT22;51603;49.300;8.880;2022-10-17T04:49:40;11.80;99.90
65036;DHT22;51603;49.300;8.880;2022-10-17T04:52:06;11.70;99.90
65036;DHT22;51603;49.300;8.880;2022-10-17T04:54:31;11.70;99.90
65036;DHT22;51603;49.300;8.880;2022-10-17T04:56:57;11.70;99.90
65036;DHT22;51603;49.300;8.880;2022-10-17T04:59:22;11.70;99.90
65036;DHT22;51603;49.300;8.880;2022-10-17T05:01:48;11.70;99.90
65036;DHT22;51603;49.300;8.880;2022-10-17T05:04:14;11.70;99.90
65036;DHT22;51603;49.300;8.880;2022-10-17T05:06:39;11.70;99.90
65036;DHT22;51603;49.300;8.880;2022-10-17T05:09:05;11.60;99.90
65036;DHT22;51603;49.300;8.880;2022-10-17T05:11:30;11.60;99.90
65036;DHT22;51603;49.300;8.880;2022-10-17T05:13:58;11.60;99.90
65036;DHT22;51603;49.300;8.880;2022-10-17T05:16:24;11.70;99.90
65036;DHT22;51603;49.300;8.880;2022-10-17T05:18:52;11.70;99.90
65036;DHT22;51603;49.300;8.880;2022-10-17T05:21:18;11.70;99.90
65036;DHT22;51603;49.300;8.880;2022-10-17T05:23:44;11.70;99.90
65036;DHT22;51603;49.300;8.880;2022-10-17T05:26:11;11.70;99.90
65036;DHT22;51603;49.300;8.880;2022-10-17T05:28:36;11.60;99.90
65036;DHT22;51603;49.300;8.880;2022-10-17T05:31:06;11.60;99.90
65036;DHT22;51603;49.300;8.880;2022-10-17T05:33:33;11.60;99.90
65036;DHT22;51603;49.300;8.880;2022-10-17T05:35:58;11.60;99.90
65036;DHT22;51603;49.300;8.880;2022-10-17T05:38:25;11.60;99.90
65036;DHT22;51603;49.300;8.880;2022-10-17T05:40:50;11.60;99.90
65036;DHT22;51603;49.300;8.880;2022-10-17T05:43:16;11.60;99.90
65036;DHT22;51603;49.300;8.880;2022-10-17T05:45:41;11.60;99.90
65036;DHT22;51603;49.300;8.880;2022-10-17T05:48:07;11.60;99.90
65036;DHT22;51603;49.300;8.880;2022-10-17T05:50:33;11.60;99.90
65036;DHT22;51603;49.300;8.880;2022-10-17T05:52:59;11.50;99.90
65036;DHT22;51603;49.300;8.880;2022-10-17T05:55:25;11.50;99.90
65036;DHT22;51603;49.300;8.880;2022-10-17T05:57:51;11.50;99.90
65036;DHT22;51603;49.300;8.880;2022-10-17T06:00:19;11.50;99.90
65036;DHT22;51603;49.300;8.880;2022-10-17T06:02:45;11.50;99.90
65036;DHT22;51603;49.300;8.880;2022-10-17T06:05:12;11.50;99.90
65036;DHT22;51603;49.300;8.880;2022-10-17T06:07:37;11.60;99.90
65036;DHT22;51603;49.300;8.880;2022-10-17T06:10:03;11.60;99.90
65036;DHT22;51603;49.300;8.880;2022-10-17T06:12:29;11.60;99.90
65036;DHT22;51603;49.300;8.880;2022-10-17T06:14:54;11.60;99.90
65036;DHT22;51603;49.300;8.880;2022-10-17T06:17:20;11.60;99.90
65036;DHT22;51603;49.300;8.880;2022-10-17T06:19:46;11.60;99.90
65036;DHT22;51603;49.300;8.880;2022-10-17T06:22:12;11.60;99.90
65036;DHT22;51603;49.300;8.880;2022-10-17T06:24:37;11.60;99.90
65036;DHT22;51603;49.300;8.880;2022-10-17T06:27:03;11.60;99.90
65036;DHT22;51603;49.300;8.880;2022-10-17T06:29:28;11.60;99.90
65036;DHT22;51603;49.300;8.880;2022-10-17T06:31:54;11.60;99.90
65036;DHT22;51603;49.300;8.880;2022-10-17T06:34:20;11.60;99.90
65036;DHT22;51603;49.300;8.880;2022-10-17T06:36:46;11.60;99.90
65036;DHT22;51603;49.300;8.880;2022-10-17T06:39:12;11.60;99.90
65036;DHT22;51603;49.300;8.880;2022-10-17T06:41:38;11.70;99.90
65036;DHT22;51603;49.300;8.880;2022-10-17T06:44:06;11.70;99.90
65036;DHT22;51603;49.300;8.880;2022-10-17T06:46:36;11.70;99.90
65036;DHT22;51603;49.300;8.880;2022-10-17T06:49:02;11.80;99.90
65036;DHT22;51603;49.300;8.880;2022-10-17T06:51:29;11.80;99.90
65036;DHT22;51603;49.300;8.880;2022-10-17T06:53:56;11.80;99.90
65036;DHT22;51603;49.300;8.880;2022-10-17T06:56:22;11.90;99.90
65036;DHT22;51603;49.300;8.880;2022-10-17T06:58:47;11.90;99.90
65036;DHT22;51603;49.300;8.880;2022-10-17T07:01:15;12.00;99.90
65036;DHT22;51603;49.300;8.880;2022-10-17T07:03:41;12.00;99.90
65036;DHT22;51603;49.300;8.880;2022-10-17T07:06:08;12.10;99.90
65036;DHT22;51603;49.300;8.880;2022-10-17T07:08:41;12.10;99.90
65036;DHT22;51603;49.300;8.880;2022-10-17T07:11:15;12.20;99.90
65036;DHT22;51603;49.300;8.880;2022-10-17T07:13:41;12.30;99.90
65036;DHT22;51603;49.300;8.880;2022-10-17T07:16:07;12.30;99.90
65036;DHT22;51603;49.300;8.880;2022-10-17T07:18:33;12.40;99.90
65036;DHT22;51603;49.300;8.880;2022-10-17T07:20:59;12.40;99.90
65036;DHT22;51603;49.300;8.880;2022-10-17T07:23:25;12.40;99.90
65036;DHT22;51603;49.300;8.880;2022-10-17T07:25:51;12.40;99.90
65036;DHT22;51603;49.300;8.880;2022-10-17T07:28:17;12.40;99.90
65036;DHT22;51603;49.300;8.880;2022-10-17T07:30:43;12.50;99.90
65036;DHT22;51603;49.300;8.880;2022-10-17T07:33:08;12.50;99.90
65036;DHT22;51603;49.300;8.880;2022-10-17T07:35:36;12.50;99.90
65036;DHT22;51603;49.300;8.880;2022-10-17T07:38:02;12.60;99.90
65036;DHT22;51603;49.300;8.880;2022-10-17T07:40:27;12.60;99.90
65036;DHT22;51603;49.300;8.880;2022-10-17T07:42:53;12.70;99.90
65036;DHT22;51603;49.300;8.880;2022-10-17T07:45:20;12.80;99.90
65036;DHT22;51603;49.300;8.880;2022-10-17T07:47:48;12.80;99.90
65036;DHT22;51603;49.300;8.880;2022-10-17T07:50:13;12.90;99.90
65036;DHT22;51603;49.300;8.880;2022-10-17T07:52:39;13.00;99.90
65036;DHT22;51603;49.300;8.880;2022-10-17T07:55:07;13.10;99.90
65036;DHT22;51603;49.300;8.880;2022-10-17T07:57:33;13.20;99.90
65036;DHT22;51603;49.300;8.880;2022-10-17T07:59:58;13.30;99.90
65036;DHT22;51603;49.300;8.880;2022-10-17T08:02:25;13.40;99.90
65036;DHT22;51603;49.300;8.880;2022-10-17T08:04:51;13.50;99.90
65036;DHT22;51603;49.300;8.880;2022-10-17T08:07:18;13.60;99.90
65036;DHT22;51603;49.300;8.880;2022-10-17T08:09:44;13.80;99.90
65036;DHT22;51603;49.300;8.880;2022-10-17T08:12:11;13.90;99.90
65036;DHT22;51603;49.300;8.880;2022-10-17T08:14:39;14.00;99.90
65036;DHT22;51603;49.300;8.880;2022-10-17T08:17:04;14.10;99.90
65036;DHT22;51603;49.300;8.880;2022-10-17T08:19:30;14.30;99.90
65036;DHT22;51603;49.300;8.880;2022-10-17T08:21:55;14.40;99.90
65036;DHT22;51603;49.300;8.880;2022-10-17T08:24:22;14.50;99.90
65036;DHT22;51603;49.300;8.880;2022-10-17T08:26:48;14.70;99.90
65036;DHT22;51603;49.300;8.880;2022-10-17T08:29:14;14.80;99.90
65036;DHT22;51603;49.300;8.880;2022-10-17T08:31:40;15.00;99.90
65036;DHT22;51603;49.300;8.880;2022-10-17T08:34:06;15.10;99.90
65036;DHT22;51603;49.300;8.880;2022-10-17T08:36:31;15.30;99.90
65036;DHT22;51603;49.300;8.880;2022-10-17T08:38:57;15.30;99.90
65036;DHT22;51603;49.300;8.880;2022-10-17T08:41:47;15.50;99.90
65036;DHT22;51603;49.300;8.880;2022-10-17T08:47:04;15.80;99.90
65036;DHT22;51603;49.300;8.880;2022-10-17T08:49:51;15.80;99.90
65036;DHT22;51603;49.300;8.880;2022-10-17T08:55:00;16.20;99.90
65036;DHT22;51603;49.300;8.880;2022-10-17T08:57:25;16.20;99.90
65036;DHT22;51603;49.300;8.880;2022-10-17T08:59:53;16.40;99.90
65036;DHT22;51603;49.300;8.880;2022-10-17T09:03:24;16.40;99.90
65036;DHT22;51603;49.300;8.880;2022-10-17T09:05:37;16.50;99.90
65036;DHT22;51603;49.300;8.880;2022-10-17T09:08:22;16.60;99.90
65036;DHT22;51603;49.300;8.880;2022-10-17T09:11:08;16.70;99.90
65036;DHT22;51603;49.300;8.880;2022-10-17T09:16:36;17.10;99.90
65036;DHT22;51603;49.300;8.880;2022-10-17T09:19:11;17.20;99.90
65036;DHT22;51603;49.300;8.880;2022-10-17T09:24:22;17.50;99.90
65036;DHT22;51603;49.300;8.880;2022-10-17T09:26:50;17.70;99.90
65036;DHT22;51603;49.300;8.880;2022-10-17T09:29:21;17.80;99.90
65036;DHT22;51603;49.300;8.880;2022-10-17T09:31:59;17.90;99.90
65036;DHT22;51603;49.300;8.880;2022-10-17T09:34:28;18.00;99.90
65036;DHT22;51603;49.300;8.880;2022-10-17T09:36:54;18.00;99.90
65036;DHT22;51603;49.300;8.880;2022-10-17T09:39:22;18.00;99.90
65036;DHT22;51603;49.300;8.880;2022-10-17T09:41:55;18.10;99.90
65036;DHT22;51603;49.300;8.880;2022-10-17T09:44:33;18.20;99.90
65036;DHT22;51603;49.300;8.880;2022-10-17T09:49:36;18.50;99.90
65036;DHT22;51603;49.300;8.880;2022-10-17T09:52:05;18.50;99.90
65036;DHT22;51603;49.300;8.880;2022-10-17T09:57:24;18.70;99.90
65036;DHT22;51603;49.300;8.880;2022-10-17T09:59:59;18.80;99.90
65036;DHT22;51603;49.300;8.880;2022-10-17T10:02:28;18.80;99.90
65036;DHT22;51603;49.300;8.880;2022-10-17T10:05:03;18.90;99.90
65036;DHT22;51603;49.300;8.880;2022-10-17T10:07:36;19.00;99.90
65036;DHT22;51603;49.300;8.880;2022-10-17T10:10:21;19.10;99.90
65036;DHT22;51603;49.300;8.880;2022-10-17T10:13:02;19.00;99.90
65036;DHT22;51603;49.300;8.880;2022-10-17T10:17:57;19.30;99.90
65036;DHT22;51603;49.300;8.880;2022-10-17T10:20:29;19.40;99.90
65036;DHT22;51603;49.300;8.880;2022-10-17T10:23:06;19.40;99.90
65036;DHT22;51603;49.300;8.880;2022-10-17T10:25:32;19.50;99.90
65036;DHT22;51603;49.300;8.880;2022-10-17T10:27:59;19.40;99.90
65036;DHT22;51603;49.300;8.880;2022-10-17T10:30:28;19.50;99.90
65036;DHT22;51603;49.300;8.880;2022-10-17T10:32:56;19.70;99.90
65036;DHT22;51603;49.300;8.880;2022-10-17T10:35:35;19.90;99.90
65036;DHT22;51603;49.300;8.880;2022-10-17T10:38:08;20.00;99.90
65036;DHT22;51603;49.300;8.880;2022-10-17T10:40:45;20.20;99.90
65036;DHT22;51603;49.300;8.880;2022-10-17T10:45:56;20.40;99.90
65036;DHT22;51603;49.300;8.880;2022-10-17T10:48:34;20.60;99.90
65036;DHT22;51603;49.300;8.880;2022-10-17T10:51:11;20.70;99.90
65036;DHT22;51603;49.300;8.880;2022-10-17T10:54:01;20.90;99.90
65036;DHT22;51603;49.300;8.880;2022-10-17T10:59:09;20.90;99.90
65036;DHT22;51603;49.300;8.880;2022-10-17T11:04:30;20.90;99.90
65036;DHT22;51603;49.300;8.880;2022-10-17T11:07:06;20.90;99.90
65036;DHT22;51603;49.300;8.880;2022-10-17T11:15:08;21.30;99.90
65036;DHT22;51603;49.300;8.880;2022-10-17T11:17:50;21.40;99.90
65036;DHT22;51603;49.300;8.880;2022-10-17T11:20:35;21.40;99.90
65036;DHT22;51603;49.300;8.880;2022-10-17T11:25:51;21.40;99.90
65036;DHT22;51603;49.300;8.880;2022-10-17T11:28:21;21.50;99.90
65036;DHT22;51603;49.300;8.880;2022-10-17T11:31:13;21.50;99.90
65036;DHT22;51603;49.300;8.880;2022-10-17T11:33:57;21.50;99.90
65036;DHT22;51603;49.300;8.880;2022-10-17T11:36:30;21.60;99.90
65036;DHT22;51603;49.300;8.880;2022-10-17T11:39:03;21.70;99.90
65036;DHT22;51603;49.300;8.880;2022-10-17T11:41:44;21.80;99.90
65036;DHT22;51603;49.300;8.880;2022-10-17T11:44:23;21.80;99.90
65036;DHT22;51603;49.300;8.880;2022-10-17T11:46:55;22.00;99.90
65036;DHT22;51603;49.300;8.880;2022-10-17T11:49:25;22.10;99.90
65036;DHT22;51603;49.300;8.880;2022-10-17T11:51:54;22.20;99.90
65036;DHT22;51603;49.300;8.880;2022-10-17T11:54:40;22.30;99.90
65036;DHT22;51603;49.300;8.880;2022-10-17T12:02:45;22.70;99.90
65036;DHT22;51603;49.300;8.880;2022-10-17T12:08:08;22.80;99.90
65036;DHT22;51603;49.300;8.880;2022-10-17T12:18:46;23.00;99.90
65036;DHT22;51603;49.300;8.880;2022-10-17T12:21:13;23.00;99.90
65036;DHT22;51603;49.300;8.880;2022-10-17T12:23:38;23.00;99.90
65036;DHT22;51603;49.300;8.880;2022-10-17T12:26:07;23.00;99.90
65036;DHT22;51603;49.300;8.880;2022-10-17T12:38:47;22.90;99.90
65036;DHT22;51603;49.300;8.880;2022-10-17T12:41:13;22.80;99.90
65036;DHT22;51603;49.300;8.880;2022-10-17T12:43:52;22.80;99.90
65036;DHT22;51603;49.300;8.880;2022-10-17T12:49:19;22.80;99.90
65036;DHT22;51603;49.300;8.880;2022-10-17T12:54:30;22.70;99.90
65036;DHT22;51603;49.300;8.880;2022-10-17T12:57:01;22.70;99.90
65036;DHT22;51603;49.300;8.880;2022-10-17T12:59:27;22.70;99.90
65036;DHT22;51603;49.300;8.880;2022-10-17T13:02:01;22.70;99.90
65036;DHT22;51603;49.300;8.880;2022-10-17T13:04:28;22.70;99.90
65036;DHT22;51603;49.300;8.880;2022-10-17T13:06:56;22.70;99.90
65036;DHT22;51603;49.300;8.880;2022-10-17T13:09:26;22.70;99.90
65036;DHT22;51603;49.300;8.880;2022-10-17T13:11:52;22.80;99.90
65036;DHT22;51603;49.300;8.880;2022-10-17T13:14:20;22.90;99.90
65036;DHT22;51603;49.300;8.880;2022-10-17T13:16:58;22.80;99.90
65036;DHT22;51603;49.300;8.880;2022-10-17T13:19:30;22.90;99.90
65036;DHT22;51603;49.300;8.880;2022-10-17T13:21:58;22.90;99.90
65036;DHT22;51603;49.300;8.880;2022-10-17T13:24:29;22.90;99.90
65036;DHT22;51603;49.300;8.880;2022-10-17T13:26:55;22.90;99.90
65036;DHT22;51603;49.300;8.880;2022-10-17T13:29:22;23.00;99.90
65036;DHT22;51603;49.300;8.880;2022-10-17T13:31:52;23.10;99.90
65036;DHT22;51603;49.300;8.880;2022-10-17T13:34:21;23.20;99.90
65036;DHT22;51603;49.300;8.880;2022-10-17T13:36:51;23.20;99.90
65036;DHT22;51603;49.300;8.880;2022-10-17T13:39:20;23.20;99.90
65036;DHT22;51603;49.300;8.880;2022-10-17T13:41:46;23.20;99.90
65036;DHT22;51603;49.300;8.880;2022-10-17T13:44:18;23.10;99.90
65036;DHT22;51603;49.300;8.880;2022-10-17T13:46:45;23.10;99.90
65036;DHT22;51603;49.300;8.880;2022-10-17T13:49:40;23.10;99.90
65036;DHT22;51603;49.300;8.880;2022-10-17T13:52:15;23.10;99.90
65036;DHT22;51603;49.300;8.880;2022-10-17T13:54:43;23.00;99.90
65036;DHT22;51603;49.300;8.880;2022-10-17T13:57:21;23.10;99.90
65036;DHT22;51603;49.300;8.880;2022-10-17T13:59:59;23.10;99.90
65036;DHT22;51603;49.300;8.880;2022-10-17T14:02:28;23.20;99.90
65036;DHT22;51603;49.300;8.880;2022-10-17T14:07:50;23.10;99.90
65036;DHT22;51603;49.300;8.880;2022-10-17T14:10:25;23.00;99.90
65036;DHT22;51603;49.300;8.880;2022-10-17T14:12:52;23.10;99.90
65036;DHT22;51603;49.300;8.880;2022-10-17T14:15:18;23.10;99.90
65036;DHT22;51603;49.300;8.880;2022-10-17T14:17:56;23.10;99.90
65036;DHT22;51603;49.300;8.880;2022-10-17T14:20:23;23.10;99.90
65036;DHT22;51603;49.300;8.880;2022-10-17T14:22:49;23.10;99.90
65036;DHT22;51603;49.300;8.880;2022-10-17T14:25:34;23.10;99.90
65036;DHT22;51603;49.300;8.880;2022-10-17T14:28:02;23.20;99.90
65036;DHT22;51603;49.300;8.880;2022-10-17T14:30:46;23.30;99.90
65036;DHT22;51603;49.300;8.880;2022-10-17T14:33:26;23.30;99.90
65036;DHT22;51603;49.300;8.880;2022-10-17T14:35:54;23.30;99.90
65036;DHT22;51603;49.300;8.880;2022-10-17T14:38:21;23.20;99.90
65036;DHT22;51603;49.300;8.880;2022-10-17T14:40:57;23.20;99.90
65036;DHT22;51603;49.300;8.880;2022-10-17T14:43:25;23.30;99.90
65036;DHT22;51603;49.300;8.880;2022-10-17T14:45:51;23.30;99.90
65036;DHT22;51603;49.300;8.880;2022-10-17T14:48:20;23.30;99.90
65036;DHT22;51603;49.300;8.880;2022-10-17T14:53:30;23.20;99.90
65036;DHT22;51603;49.300;8.880;2022-10-17T14:55:59;23.20;99.90
65036;DHT22;51603;49.300;8.880;2022-10-17T14:58:26;23.20;99.90
65036;DHT22;51603;49.300;8.880;2022-10-17T15:00:53;23.30;99.90
65036;DHT22;51603;49.300;8.880;2022-10-17T15:03:18;23.30;99.90
65036;DHT22;51603;49.300;8.880;2022-10-17T15:05:48;23.40;99.90
65036;DHT22;51603;49.300;8.880;2022-10-17T15:08:15;23.40;99.90
65036;DHT22;51603;49.300;8.880;2022-10-17T15:10:42;23.40;99.90
65036;DHT22;51603;49.300;8.880;2022-10-17T15:13:09;23.30;99.90
65036;DHT22;51603;49.300;8.880;2022-10-17T15:15:36;23.30;99.90
65036;DHT22;51603;49.300;8.880;2022-10-17T15:18:02;23.20;99.90
65036;DHT22;51603;49.300;8.880;2022-10-17T15:20:28;23.20;99.90
65036;DHT22;51603;49.300;8.880;2022-10-17T15:22:56;23.20;99.90
65036;DHT22;51603;49.300;8.880;2022-10-17T15:25:22;23.10;99.90
65036;DHT22;51603;49.300;8.880;2022-10-17T15:27:48;23.00;99.90
65036;DHT22;51603;49.300;8.880;2022-10-17T15:30:25;22.90;99.90
65036;DHT22;51603;49.300;8.880;2022-10-17T15:32:51;22.80;99.90
65036;DHT22;51603;49.300;8.880;2022-10-17T15:35:18;22.70;99.90
65036;DHT22;51603;49.300;8.880;2022-10-17T15:37:44;22.60;99.90
65036;DHT22;51603;49.300;8.880;2022-10-17T15:40:16;22.40;99.90
65036;DHT22;51603;49.300;8.880;2022-10-17T15:42:42;22.20;99.90
65036;DHT22;51603;49.300;8.880;2022-10-17T15:45:10;22.00;99.90
65036;DHT22;51603;49.300;8.880;2022-10-17T15:47:37;21.70;99.90
65036;DHT22;51603;49.300;8.880;2022-10-17T15:50:04;21.50;99.90
65036;DHT22;51603;49.300;8.880;2022-10-17T15:52:31;21.40;99.90
65036;DHT22;51603;49.300;8.880;2022-10-17T15:54:56;21.30;99.90
65036;DHT22;51603;49.300;8.880;2022-10-17T15:57:25;21.30;99.90
65036;DHT22;51603;49.300;8.880;2022-10-17T15:59:52;21.10;99.90
65036;DHT22;51603;49.300;8.880;2022-10-17T16:02:20;20.90;99.90
65036;DHT22;51603;49.300;8.880;2022-10-17T16:04:47;20.70;99.90
65036;DHT22;51603;49.300;8.880;2022-10-17T16:07:13;20.60;99.90
65036;DHT22;51603;49.300;8.880;2022-10-17T16:09:38;20.50;99.90
65036;DHT22;51603;49.300;8.880;2022-10-17T16:12:05;20.40;99.90
65036;DHT22;51603;49.300;8.880;2022-10-17T16:14:34;20.30;99.90
65036;DHT22;51603;49.300;8.880;2022-10-17T16:16:59;20.20;99.90
65036;DHT22;51603;49.300;8.880;2022-10-17T16:19:25;20.10;99.90
65036;DHT22;51603;49.300;8.880;2022-10-17T16:21:55;19.90;99.90
65036;DHT22;51603;49.300;8.880;2022-10-17T16:24:22;19.80;99.90
65036;DHT22;51603;49.300;8.880;2022-10-17T16:26:48;19.70;99.90
65036;DHT22;51603;49.300;8.880;2022-10-17T16:29:13;19.60;99.90
65036;DHT22;51603;49.300;8.880;2022-10-17T16:31:41;19.50;99.90
65036;DHT22;51603;49.300;8.880;2022-10-17T16:34:07;19.40;99.90
65036;DHT22;51603;49.300;8.880;2022-10-17T16:36:34;19.20;99.90
65036;DHT22;51603;49.300;8.880;2022-10-17T16:39:00;19.20;99.90
65036;DHT22;51603;49.300;8.880;2022-10-17T16:41:28;19.10;99.90
65036;DHT22;51603;49.300;8.880;2022-10-17T16:43:56;19.00;99.90
65036;DHT22;51603;49.300;8.880;2022-10-17T16:46:23;18.90;99.90
65036;DHT22;51603;49.300;8.880;2022-10-17T16:48:49;18.80;99.90
65036;DHT22;51603;49.300;8.880;2022-10-17T16:51:16;18.80;99.90
65036;DHT22;51603;49.300;8.880;2022-10-17T16:53:43;18.80;99.90
65036;DHT22;51603;49.300;8.880;2022-10-17T16:56:27;18.80;99.90
65036;DHT22;51603;49.300;8.880;2022-10-17T16:58:57;18.70;99.90
65036;DHT22;51603;49.300;8.880;2022-10-17T17:01:24;18.70;99.90
65036;DHT22;51603;49.300;8.880;2022-10-17T17:03:51;18.60;99.90
65036;DHT22;51603;49.300;8.880;2022-10-17T17:06:20;18.60;99.90
65036;DHT22;51603;49.300;8.880;2022-10-17T17:08:46;18.50;99.90
65036;DHT22;51603;49.300;8.880;2022-10-17T17:11:14;18.50;99.90
65036;DHT22;51603;49.300;8.880;2022-10-17T17:13:40;18.40;99.90
65036;DHT22;51603;49.300;8.880;2022-10-17T17:16:08;18.30;99.90
65036;DHT22;51603;49.300;8.880;2022-10-17T17:18:35;18.20;99.90
65036;DHT22;51603;49.300;8.880;2022-10-17T17:21:02;18.10;99.90
65036;DHT22;51603;49.300;8.880;2022-10-17T17:23:29;18.00;99.90